createdAt,value
2022-07-30T00:00:50.728Z,97041.00
2022-07-30T00:03:17.713Z,97045.00
2022-07-30T00:05:44.635Z,97039.00
2022-07-30T00:08:11.557Z,97046.00
2022-07-30T00:10:39.232Z,97038.00
2022-07-30T00:13:06.736Z,97044.00
2022-07-30T00:15:34.140Z,97041.00
2022-07-30T00:18:01.055Z,97042.00
2022-07-30T00:20:28.296Z,97043.00
2022-07-30T00:22:55.511Z,97040.00
2022-07-30T00:25:22.482Z,97038.00
2022-07-30T00:27:49.550Z,97042.00
2022-07-30T00:30:16.524Z,97045.00
2022-07-30T00:32:43.442Z,97044.00
2022-07-30T00:35:10.811Z,97038.00
2022-07-30T00:37:37.907Z,97030.00
2022-07-30T00:40:07.383Z,97035.00
2022-07-30T00:42:45.908Z,97041.00
2022-07-30T00:45:14.615Z,97036.00
2022-07-30T00:47:42.072Z,97041.00
2022-07-30T00:50:11.792Z,97029.00
2022-07-30T00:52:39.762Z,97039.00
2022-07-30T00:55:13.161Z,97030.00
2022-07-30T00:57:40.746Z,97026.00
2022-07-30T01:00:13.338Z,97025.00
2022-07-30T01:02:40.410Z,97028.00
2022-07-30T01:05:08.523Z,97033.00
2022-07-30T01:07:35.466Z,97032.00
2022-07-30T01:10:03.722Z,97039.00
2022-07-30T01:12:32.105Z,97037.00
2022-07-30T01:15:01.876Z,97039.00
2022-07-30T01:17:29.018Z,97038.00
2022-07-30T01:20:04.214Z,97031.00
2022-07-30T01:22:47.734Z,97032.00
2022-07-30T01:25:28.628Z,97027.00
2022-07-30T01:28:01.898Z,97030.00
2022-07-30T01:30:34.833Z,97032.00
2022-07-30T01:33:02.294Z,97024.00
2022-07-30T01:35:32.793Z,97026.00
2022-07-30T01:38:02.025Z,97027.00
2022-07-30T01:40:29.642Z,97023.00
2022-07-30T01:42:59.138Z,97022.00
2022-07-30T01:45:29.261Z,97024.00
2022-07-30T01:48:03.763Z,97022.00
2022-07-30T01:50:31.912Z,97025.00
2022-07-30T01:53:00.447Z,97022.00
2022-07-30T01:55:40.293Z,97018.00
2022-07-30T01:58:09.994Z,97011.00
2022-07-30T02:00:40.897Z,97008.00
2022-07-30T02:03:09.039Z,97006.00
2022-07-30T02:05:37.528Z,97006.00
2022-07-30T02:08:17.551Z,97016.00
2022-07-30T02:11:36.886Z,97020.00
2022-07-30T02:14:14.513Z,97012.00
2022-07-30T02:16:45.027Z,97012.00
2022-07-30T02:19:16.481Z,97011.00
2022-07-30T02:21:50.383Z,97007.00
2022-07-30T02:24:23.943Z,97017.00
2022-07-30T02:26:56.613Z,97016.00
2022-07-30T02:29:24.471Z,97006.00
2022-07-30T02:31:54.446Z,97012.00
2022-07-30T02:34:24.350Z,97005.00
2022-07-30T02:36:53.257Z,97000.00
2022-07-30T02:39:22.855Z,97001.00
2022-07-30T02:41:52.371Z,97003.00
2022-07-30T02:44:21.228Z,97006.00
2022-07-30T02:46:49.892Z,97000.00
2022-07-30T02:49:20.539Z,97010.00
2022-07-30T02:51:49.644Z,97010.00
2022-07-30T02:54:19.596Z,97015.00
2022-07-30T02:56:49.948Z,97009.00
2022-07-30T02:59:20.142Z,97013.00
2022-07-30T03:01:49.061Z,97013.00
2022-07-30T03:04:20.782Z,97017.00
2022-07-30T03:06:49.621Z,97012.00
2022-07-30T03:09:18.520Z,97007.00
2022-07-30T03:11:48.240Z,97012.00
2022-07-30T03:14:15.144Z,97006.00
2022-07-30T03:16:49.147Z,97005.00
2022-07-30T03:19:20.644Z,97014.00
2022-07-30T03:21:49.924Z,97009.00
2022-07-30T03:24:18.295Z,97008.00
2022-07-30T03:26:47.043Z,97011.00
2022-07-30T03:29:16.604Z,97007.00
2022-07-30T03:31:49.850Z,97008.00
2022-07-30T03:34:17.645Z,97006.00
2022-07-30T03:36:44.882Z,96999.00
2022-07-30T03:39:12.621Z,97009.00
2022-07-30T03:41:40.658Z,97018.00
2022-07-30T03:44:08.685Z,97009.00
2022-07-30T03:46:37.403Z,97011.00
2022-07-30T03:49:06.069Z,97024.00
2022-07-30T03:51:36.210Z,97022.00
2022-07-30T03:54:09.380Z,97022.00
2022-07-30T03:56:39.016Z,97023.00
2022-07-30T03:59:06.305Z,97023.00
2022-07-30T04:01:33.229Z,97029.00
2022-07-30T04:04:08.170Z,97023.00
2022-07-30T04:06:39.808Z,97025.00
2022-07-30T04:09:08.978Z,97026.00
2022-07-30T04:11:41.480Z,97023.00
2022-07-30T04:14:09.253Z,97017.00
2022-07-30T04:17:02.482Z,97021.00
2022-07-30T04:19:46.778Z,97023.00
2022-07-30T04:22:16.230Z,97029.00
2022-07-30T04:24:44.982Z,97031.00
2022-07-30T04:27:12.193Z,97031.00
2022-07-30T04:29:40.299Z,97029.00
2022-07-30T04:32:09.726Z,97033.00
2022-07-30T04:34:36.818Z,97037.00
2022-07-30T04:37:04.446Z,97040.00
2022-07-30T04:39:31.583Z,97037.00
2022-07-30T04:41:58.429Z,97038.00
2022-07-30T04:44:25.329Z,97043.00
2022-07-30T04:46:52.270Z,97042.00
2022-07-30T04:49:20.395Z,97039.00
2022-07-30T04:51:49.123Z,97046.00
2022-07-30T04:54:16.638Z,97045.00
2022-07-30T04:56:50.241Z,97043.00
2022-07-30T04:59:23.911Z,97046.00
2022-07-30T05:01:52.534Z,97046.00
2022-07-30T05:04:20.617Z,97055.00
2022-07-30T05:06:48.296Z,97054.00
2022-07-30T05:09:16.358Z,97046.00
2022-07-30T05:11:50.295Z,97056.00
2022-07-30T05:14:17.147Z,97057.00
2022-07-30T05:16:44.009Z,97057.00
2022-07-30T05:19:12.238Z,97054.00
2022-07-30T05:21:39.218Z,97050.00
2022-07-30T05:24:06.773Z,97050.00
2022-07-30T05:26:33.872Z,97054.00
2022-07-30T05:29:01.158Z,97044.00
2022-07-30T05:31:31.720Z,97042.00
2022-07-30T05:34:03.011Z,97042.00
2022-07-30T05:36:31.010Z,97050.00
2022-07-30T05:38:58.061Z,97047.00
2022-07-30T05:41:32.403Z,97060.00
2022-07-30T05:44:01.655Z,97051.00
2022-07-30T05:46:29.043Z,97057.00
2022-07-30T05:48:56.009Z,97058.00
2022-07-30T05:51:22.988Z,97050.00
2022-07-30T05:53:50.447Z,97057.00
2022-07-30T05:56:17.399Z,97054.00
2022-07-30T05:58:44.341Z,97065.00
2022-07-30T06:01:12.167Z,97065.00
2022-07-30T06:03:39.465Z,97068.00
2022-07-30T06:06:07.717Z,97070.00
2022-07-30T06:08:35.298Z,97078.00
2022-07-30T06:11:02.366Z,97074.00
2022-07-30T06:13:29.297Z,97079.00
2022-07-30T06:15:56.786Z,97079.00
2022-07-30T06:18:23.684Z,97073.00
2022-07-30T06:20:54.774Z,97072.00
2022-07-30T06:23:22.830Z,97069.00
2022-07-30T06:25:50.817Z,97070.00
2022-07-30T06:28:36.901Z,97072.00
2022-07-30T06:31:05.447Z,97081.00
2022-07-30T06:33:32.648Z,97084.00
2022-07-30T06:35:59.515Z,97087.00
2022-07-30T06:38:26.443Z,97087.00
2022-07-30T06:40:53.437Z,97089.00
2022-07-30T06:43:21.289Z,97088.00
2022-07-30T06:45:48.489Z,97087.00
2022-07-30T06:48:15.356Z,97090.00
2022-07-30T06:50:42.564Z,97094.00
2022-07-30T06:53:09.597Z,97095.00
2022-07-30T06:55:36.513Z,97101.00
2022-07-30T06:58:03.467Z,97100.00
2022-07-30T07:00:30.483Z,97090.00
2022-07-30T07:02:57.356Z,97090.00
2022-07-30T07:05:25.240Z,97090.00
2022-07-30T07:07:59.255Z,97093.00
2022-07-30T07:10:27.561Z,97095.00
2022-07-30T07:12:55.413Z,97093.00
2022-07-30T07:15:36.459Z,97090.00
2022-07-30T07:18:05.053Z,97098.00
2022-07-30T07:20:33.133Z,97081.00
2022-07-30T07:23:01.640Z,97088.00
2022-07-30T07:25:33.564Z,97092.00
2022-07-30T07:28:12.062Z,97095.00
2022-07-30T07:30:41.637Z,97095.00
2022-07-30T07:33:09.225Z,97092.00
2022-07-30T07:35:45.537Z,97097.00
2022-07-30T07:38:19.454Z,97097.00
2022-07-30T07:40:47.404Z,97096.00
2022-07-30T07:43:14.854Z,97101.00
2022-07-30T07:45:43.159Z,97098.00
2022-07-30T07:48:10.342Z,97094.00
2022-07-30T07:50:37.500Z,97101.00
2022-07-30T07:53:06.287Z,97109.00
2022-07-30T07:55:33.166Z,97101.00
2022-07-30T07:58:00.815Z,97102.00
2022-07-30T08:00:27.937Z,97095.00
2022-07-30T08:02:54.898Z,97099.00
2022-07-30T08:05:21.865Z,97096.00
2022-07-30T08:07:48.882Z,97102.00
2022-07-30T08:10:16.206Z,97093.00
2022-07-30T08:12:43.193Z,97092.00
2022-07-30T08:15:10.803Z,97099.00
2022-07-30T08:17:45.547Z,97102.00
2022-07-30T08:20:14.583Z,97110.00
2022-07-30T08:22:41.655Z,97105.00
2022-07-30T08:25:09.483Z,97107.00
2022-07-30T08:27:36.443Z,97104.00
2022-07-30T08:30:08.935Z,97108.00
2022-07-30T08:32:37.500Z,97116.00
2022-07-30T08:35:06.412Z,97109.00
2022-07-30T08:37:34.223Z,97106.00
2022-07-30T08:40:01.136Z,97116.00
2022-07-30T08:42:28.074Z,97118.00
2022-07-30T08:44:56.783Z,97115.00
2022-07-30T08:47:31.934Z,97110.00
2022-07-30T08:50:06.562Z,97108.00
2022-07-30T08:52:37.203Z,97114.00
2022-07-30T08:55:08.324Z,97109.00
2022-07-30T08:57:35.737Z,97112.00
2022-07-30T09:00:05.373Z,97110.00
2022-07-30T09:02:33.104Z,97114.00
2022-07-30T09:05:00.084Z,97109.00
2022-07-30T09:07:27.270Z,97118.00
2022-07-30T09:09:54.126Z,97115.00
2022-07-30T09:12:44.927Z,97124.00
2022-07-30T09:15:30.015Z,97118.00
2022-07-30T09:18:02.292Z,97120.00
2022-07-30T09:20:35.070Z,97126.00
2022-07-30T09:23:06.320Z,97113.00
2022-07-30T09:25:48.830Z,97110.00
2022-07-30T09:28:17.084Z,97120.00
2022-07-30T09:30:49.902Z,97124.00
2022-07-30T09:33:34.928Z,97114.00
2022-07-30T09:36:02.511Z,97125.00
2022-07-30T09:38:29.752Z,97125.00
2022-07-30T09:41:00.165Z,97127.00
2022-07-30T09:43:31.715Z,97128.00
2022-07-30T09:46:00.501Z,97121.00
2022-07-30T09:48:28.579Z,97131.00
2022-07-30T09:50:57.517Z,97130.00
2022-07-30T09:53:25.017Z,97130.00
2022-07-30T09:55:51.836Z,97133.00
2022-07-30T09:58:26.751Z,97132.00
2022-07-30T10:01:01.266Z,97123.00
2022-07-30T10:03:33.965Z,97132.00
2022-07-30T10:06:09.156Z,97120.00
2022-07-30T10:08:50.520Z,97120.00
2022-07-30T10:11:23.810Z,97117.00
2022-07-30T10:13:59.125Z,97118.00
2022-07-30T10:16:29.487Z,97124.00
2022-07-30T10:19:00.041Z,97131.00
2022-07-30T10:21:28.572Z,97114.00
2022-07-30T10:23:59.688Z,97116.00
2022-07-30T10:26:28.092Z,97117.00
2022-07-30T10:28:55.753Z,97116.00
2022-07-30T10:31:48.693Z,97109.00
2022-07-30T10:34:10.754Z,97101.00
2022-07-30T10:36:43.261Z,97101.00
2022-07-30T10:39:16.187Z,97103.00
2022-07-30T10:42:02.370Z,97098.00
2022-07-30T10:44:59.960Z,97102.00
2022-07-30T10:47:34.517Z,97096.00
2022-07-30T10:50:22.720Z,97091.00
2022-07-30T10:52:55.989Z,97085.00
2022-07-30T10:55:38.810Z,97089.00
2022-07-30T10:58:12.242Z,97090.00
2022-07-30T11:00:54.495Z,97088.00
2022-07-30T11:03:41.701Z,97089.00
2022-07-30T11:06:24.406Z,97077.00
2022-07-30T11:08:51.853Z,97072.00
2022-07-30T11:11:59.649Z,97071.00
2022-07-30T11:14:10.799Z,97067.00
2022-07-30T11:16:40.320Z,97069.00
2022-07-30T11:19:56.839Z,97069.00
2022-07-30T11:22:28.301Z,97062.00
2022-07-30T11:24:57.038Z,97061.00
2022-07-30T11:27:48.407Z,97061.00
2022-07-30T11:30:23.663Z,97058.00
2022-07-30T11:33:18.559Z,97060.00
2022-07-30T11:36:10.477Z,97051.00
2022-07-30T11:38:58.981Z,97061.00
2022-07-30T11:41:32.088Z,97056.00
2022-07-30T11:44:26.694Z,97065.00
2022-07-30T11:46:53.809Z,97066.00
2022-07-30T11:49:21.429Z,97062.00
2022-07-30T11:51:55.787Z,97063.00
2022-07-30T11:54:25.152Z,97062.00
2022-07-30T11:56:55.399Z,97058.00
2022-07-30T11:59:22.716Z,97059.00
2022-07-30T12:01:52.475Z,97061.00
2022-07-30T12:04:19.654Z,97053.00
2022-07-30T12:06:48.729Z,97056.00
2022-07-30T12:09:24.372Z,97073.00
2022-07-30T12:11:55.856Z,97078.00
2022-07-30T12:14:23.066Z,97074.00
2022-07-30T12:16:53.267Z,97076.00
2022-07-30T12:19:20.277Z,97080.00
2022-07-30T12:21:52.585Z,97093.00
2022-07-30T12:24:26.284Z,97094.00
2022-07-30T12:27:04.759Z,97098.00
2022-07-30T12:29:33.812Z,97115.00
2022-07-30T12:32:01.835Z,97113.00
2022-07-30T12:34:28.843Z,97127.00
2022-07-30T12:36:55.897Z,97120.00
2022-07-30T12:39:27.823Z,97115.00
2022-07-30T12:41:56.166Z,97120.00
2022-07-30T12:44:44.870Z,97120.00
2022-07-30T12:47:31.127Z,97116.00
2022-07-30T12:50:02.507Z,97133.00
2022-07-30T12:52:35.218Z,97130.00
2022-07-30T12:55:13.267Z,97134.00
2022-07-30T12:57:58.418Z,97126.00
2022-07-30T13:00:47.033Z,97120.00
2022-07-30T13:03:26.895Z,97127.00
2022-07-30T13:05:57.500Z,97127.00
2022-07-30T13:08:55.904Z,97123.00
2022-07-30T13:11:40.836Z,97124.00
2022-07-30T13:14:08.998Z,97120.00
2022-07-30T13:16:37.269Z,97121.00
2022-07-30T13:19:05.849Z,97113.00
2022-07-30T13:21:33.758Z,97112.00
2022-07-30T13:24:01.258Z,97111.00
2022-07-30T13:26:31.200Z,97113.00
2022-07-30T13:29:01.684Z,97101.00
2022-07-30T13:31:29.083Z,97104.00
2022-07-30T13:34:09.595Z,97102.00
2022-07-30T13:36:36.450Z,97111.00
2022-07-30T13:39:03.777Z,97096.00
2022-07-30T13:41:30.675Z,97097.00
2022-07-30T13:43:57.613Z,97090.00
2022-07-30T13:46:24.516Z,97084.00
2022-07-30T13:48:51.465Z,97081.00
2022-07-30T13:51:18.735Z,97081.00
2022-07-30T13:53:45.737Z,97078.00
2022-07-30T13:56:13.202Z,97071.00
2022-07-30T13:58:40.907Z,97074.00
2022-07-30T14:01:07.862Z,97079.00
2022-07-30T14:03:35.369Z,97068.00
2022-07-30T14:06:11.027Z,97081.00
2022-07-30T14:08:39.213Z,97077.00
2022-07-30T14:11:06.126Z,97093.00
2022-07-30T14:13:32.972Z,97114.00
2022-07-30T14:15:59.954Z,97110.00
2022-07-30T14:18:26.790Z,97091.00
2022-07-30T14:20:53.796Z,97080.00
2022-07-30T14:23:21.011Z,97077.00
2022-07-30T14:25:47.980Z,97080.00
2022-07-30T14:28:15.370Z,97087.00
2022-07-30T14:30:42.715Z,97105.00
2022-07-30T14:33:10.513Z,97103.00
2022-07-30T14:35:37.414Z,97109.00
2022-07-30T14:38:04.541Z,97123.00
2022-07-30T14:40:31.732Z,97109.00
2022-07-30T14:42:58.664Z,97111.00
2022-07-30T14:45:25.722Z,97120.00
2022-07-30T14:47:53.225Z,97130.00
2022-07-30T14:50:20.359Z,97138.00
2022-07-30T14:52:48.753Z,97152.00
2022-07-30T14:55:15.646Z,97138.00
2022-07-30T14:57:43.471Z,97135.00
2022-07-30T15:00:11.935Z,97138.00
2022-07-30T15:02:40.791Z,97150.00
2022-07-30T15:05:08.942Z,97150.00
2022-07-30T15:07:35.826Z,97153.00
2022-07-30T15:10:03.782Z,97158.00
2022-07-30T15:12:30.651Z,97150.00
2022-07-30T15:14:57.549Z,97157.00
2022-07-30T15:17:24.684Z,97162.00
2022-07-30T15:19:51.854Z,97166.00
2022-07-30T15:22:22.137Z,97175.00
2022-07-30T15:24:49.803Z,97170.00
2022-07-30T15:27:17.116Z,97176.00
2022-07-30T15:29:44.524Z,97174.00
2022-07-30T15:32:11.420Z,97183.00
2022-07-30T15:34:38.342Z,97186.00
2022-07-30T15:37:05.714Z,97186.00
2022-07-30T15:39:33.957Z,97189.00
2022-07-30T15:42:02.859Z,97195.00
2022-07-30T15:44:30.296Z,97200.00
2022-07-30T15:46:57.741Z,97194.00
2022-07-30T15:49:24.916Z,97201.00
2022-07-30T15:51:52.242Z,97194.00
2022-07-30T15:54:23.283Z,97178.00
2022-07-30T15:56:53.917Z,97188.00
2022-07-30T15:59:22.059Z,97183.00
2022-07-30T16:01:49.886Z,97181.00
2022-07-30T16:04:19.871Z,97181.00
2022-07-30T16:06:48.384Z,97189.00
2022-07-30T16:09:16.535Z,97187.00
2022-07-30T16:11:43.429Z,97202.00
2022-07-30T16:14:11.120Z,97212.00
2022-07-30T16:16:38.189Z,97217.00
2022-07-30T16:19:05.200Z,97223.00
2022-07-30T16:21:32.046Z,97227.00
2022-07-30T16:23:59.300Z,97221.00
2022-07-30T16:26:26.137Z,97207.00
2022-07-30T16:28:53.099Z,97201.00
2022-07-30T16:31:20.051Z,97205.00
2022-07-30T16:33:47.326Z,97201.00
2022-07-30T16:36:14.366Z,97207.00
2022-07-30T16:38:41.422Z,97197.00
2022-07-30T16:41:13.495Z,97202.00
2022-07-30T16:43:40.916Z,97204.00
2022-07-30T16:46:07.841Z,97209.00
2022-07-30T16:48:34.772Z,97207.00
2022-07-30T16:51:01.723Z,97211.00
2022-07-30T16:53:29.102Z,97223.00
2022-07-30T16:55:57.009Z,97219.00
2022-07-30T16:58:30.642Z,97219.00
2022-07-30T17:00:58.340Z,97223.00
2022-07-30T17:03:25.740Z,97224.00
2022-07-30T17:05:53.172Z,97222.00
2022-07-30T17:08:24.981Z,97231.00
2022-07-30T17:10:53.559Z,97226.00
2022-07-30T17:13:21.585Z,97231.00
2022-07-30T17:15:48.865Z,97228.00
2022-07-30T17:18:16.483Z,97228.00
2022-07-30T17:20:44.209Z,97225.00
2022-07-30T17:23:11.341Z,97225.00
2022-07-30T17:25:38.169Z,97220.00
2022-07-30T17:28:05.261Z,97226.00
2022-07-30T17:30:32.099Z,97227.00
2022-07-30T17:32:59.011Z,97228.00
2022-07-30T17:35:26.316Z,97230.00
2022-07-30T17:37:53.334Z,97222.00
2022-07-30T17:40:30.468Z,97236.00
2022-07-30T17:43:03.991Z,97240.00
2022-07-30T17:45:36.018Z,97245.00
2022-07-30T17:48:04.573Z,97234.00
2022-07-30T17:50:33.051Z,97232.00
2022-07-30T17:53:03.452Z,97240.00
2022-07-30T17:55:32.146Z,97239.00
2022-07-30T17:57:58.987Z,97246.00
2022-07-30T18:00:25.987Z,97239.00
2022-07-30T18:02:52.958Z,97245.00
2022-07-30T18:05:19.975Z,97238.00
2022-07-30T18:07:46.942Z,97242.00
2022-07-30T18:10:13.815Z,97240.00
2022-07-30T18:12:48.683Z,97244.00
2022-07-30T18:15:17.953Z,97256.00
2022-07-30T18:17:45.148Z,97242.00
2022-07-30T18:20:12.375Z,97245.00
2022-07-30T18:22:39.671Z,97244.00
2022-07-30T18:25:08.484Z,97233.00
2022-07-30T18:27:49.949Z,97231.00
2022-07-30T18:30:17.459Z,97234.00
2022-07-30T18:32:45.244Z,97237.00
2022-07-30T18:35:14.666Z,97240.00
2022-07-30T18:37:43.723Z,97236.00
2022-07-30T18:40:13.256Z,97237.00
2022-07-30T18:42:40.475Z,97240.00
2022-07-30T18:45:08.420Z,97243.00
2022-07-30T18:47:35.307Z,97255.00
2022-07-30T18:50:02.531Z,97247.00
2022-07-30T18:52:29.500Z,97257.00
2022-07-30T18:54:56.544Z,97254.00
2022-07-30T18:57:23.401Z,97257.00
2022-07-30T18:59:50.265Z,97262.00
2022-07-30T19:02:17.082Z,97266.00
2022-07-30T19:04:44.019Z,97265.00
2022-07-30T19:07:10.998Z,97264.00
2022-07-30T19:09:38.101Z,97272.00
2022-07-30T19:12:05.687Z,97272.00
2022-07-30T19:14:32.812Z,97267.00
2022-07-30T19:16:59.957Z,97275.00
2022-07-30T19:19:27.363Z,97276.00
2022-07-30T19:21:54.652Z,97270.00
2022-07-30T19:24:21.586Z,97281.00
2022-07-30T19:26:49.195Z,97287.00
2022-07-30T19:29:16.259Z,97281.00
2022-07-30T19:31:43.078Z,97291.00
2022-07-30T19:34:11.070Z,97281.00
2022-07-30T19:36:39.497Z,97293.00
2022-07-30T19:39:07.074Z,97285.00
2022-07-30T19:41:40.439Z,97289.00
2022-07-30T19:44:09.122Z,97295.00
2022-07-30T19:46:36.385Z,97299.00
2022-07-30T19:49:04.000Z,97303.00
2022-07-30T19:52:09.954Z,97305.00
2022-07-30T19:54:20.718Z,97313.00
2022-07-30T19:56:48.720Z,97305.00
2022-07-30T19:59:15.860Z,97303.00
2022-07-30T20:01:47.811Z,97316.00
2022-07-30T20:04:18.876Z,97315.00
2022-07-30T20:06:46.233Z,97307.00
2022-07-30T20:09:14.553Z,97307.00
2022-07-30T20:11:43.850Z,97312.00
2022-07-30T20:14:11.272Z,97302.00
2022-07-30T20:16:43.778Z,97301.00
2022-07-30T20:19:15.786Z,97304.00
2022-07-30T20:21:56.530Z,97305.00
2022-07-30T20:24:30.526Z,97310.00
2022-07-30T20:26:58.103Z,97313.00
2022-07-30T20:29:25.087Z,97317.00
2022-07-30T20:31:52.008Z,97316.00
2022-07-30T20:34:25.782Z,97314.00
2022-07-30T20:36:53.984Z,97317.00
2022-07-30T20:39:25.171Z,97311.00
2022-07-30T20:42:07.737Z,97307.00
2022-07-30T20:44:50.508Z,97317.00
2022-07-30T20:47:34.663Z,97317.00
2022-07-30T20:50:10.792Z,97314.00
2022-07-30T20:52:40.419Z,97318.00
2022-07-30T20:55:09.974Z,97316.00
2022-07-30T20:57:44.325Z,97325.00
2022-07-30T21:00:25.366Z,97318.00
2022-07-30T21:02:52.265Z,97309.00
2022-07-30T21:05:20.026Z,97312.00
2022-07-30T21:07:47.344Z,97307.00
2022-07-30T21:10:14.594Z,97315.00
2022-07-30T21:12:44.665Z,97320.00
2022-07-30T21:15:23.388Z,97317.00
2022-07-30T21:17:51.426Z,97314.00
2022-07-30T21:20:27.911Z,97318.00
2022-07-30T21:22:56.411Z,97317.00
2022-07-30T21:25:33.046Z,97328.00
2022-07-30T21:28:02.786Z,97326.00
2022-07-30T21:30:31.228Z,97326.00
2022-07-30T21:32:59.648Z,97328.00
2022-07-30T21:35:32.066Z,97325.00
2022-07-30T21:37:59.372Z,97323.00
2022-07-30T21:40:27.681Z,97335.00
2022-07-30T21:42:55.662Z,97330.00
2022-07-30T21:45:23.846Z,97330.00
2022-07-30T21:48:07.228Z,97331.00
2022-07-30T21:50:34.073Z,97324.00
2022-07-30T21:53:01.076Z,97332.00
2022-07-30T21:55:28.054Z,97327.00
2022-07-30T21:58:00.455Z,97327.00
2022-07-30T22:00:50.083Z,97326.00
2022-07-30T22:04:03.715Z,97325.00
2022-07-30T22:06:07.375Z,97327.00
2022-07-30T22:08:39.704Z,97331.00
2022-07-30T22:11:08.908Z,97323.00
2022-07-30T22:13:53.453Z,97328.00
2022-07-30T22:16:21.875Z,97335.00
2022-07-30T22:18:48.833Z,97339.00
2022-07-30T22:21:15.850Z,97334.00
2022-07-30T22:23:57.575Z,97331.00
2022-07-30T22:26:27.931Z,97330.00
2022-07-30T22:28:54.992Z,97327.00
2022-07-30T22:31:22.026Z,97329.00
2022-07-30T22:33:49.863Z,97328.00
2022-07-30T22:36:24.480Z,97311.00
2022-07-30T22:38:58.795Z,97316.00
2022-07-30T22:41:26.370Z,97312.00
2022-07-30T22:43:55.992Z,97313.00
2022-07-30T22:46:31.140Z,97313.00
2022-07-30T22:48:59.785Z,97317.00
2022-07-30T22:52:01.224Z,97315.00
2022-07-30T22:54:14.150Z,97315.00
2022-07-30T22:56:42.377Z,97326.00
2022-07-30T22:59:13.124Z,97322.00
2022-07-30T23:01:43.322Z,97322.00
2022-07-30T23:04:10.503Z,97314.00
2022-07-30T23:06:37.519Z,97319.00
2022-07-30T23:09:07.965Z,97323.00
2022-07-30T23:11:38.771Z,97324.00
2022-07-30T23:14:10.412Z,97320.00
2022-07-30T23:16:38.700Z,97330.00
2022-07-30T23:19:06.564Z,97319.00
2022-07-30T23:21:34.840Z,97313.00
2022-07-30T23:24:01.911Z,97322.00
2022-07-30T23:26:28.734Z,97321.00
2022-07-30T23:28:55.630Z,97318.00
2022-07-30T23:31:26.692Z,97322.00
2022-07-30T23:33:53.843Z,97333.00
2022-07-30T23:36:20.658Z,97323.00
2022-07-30T23:38:47.554Z,97327.00
2022-07-30T23:41:14.390Z,97331.00
2022-07-30T23:43:56.786Z,97327.00
2022-07-30T23:46:23.597Z,97334.00
2022-07-30T23:48:50.555Z,97333.00
2022-07-30T23:51:17.494Z,97344.00
2022-07-30T23:53:44.331Z,97343.00
2022-07-30T23:56:18.016Z,97330.00
2022-07-30T23:58:45.925Z,97347.00
